createdAt,value
2018-04-11T00:02:20.153Z,57.40
2018-04-11T00:04:46.401Z,58.90
2018-04-11T00:07:13.167Z,58.50
2018-04-11T00:09:40.171Z,58.20
2018-04-11T00:12:06.424Z,58.20
2018-04-11T00:14:33.413Z,57.90
2018-04-11T00:17:00.954Z,58.50
2018-04-11T00:19:27.213Z,58.50
2018-04-11T00:21:55.085Z,58.60
2018-04-11T00:24:22.076Z,58.40
2018-04-11T00:26:48.351Z,58.50
2018-04-11T00:29:14.945Z,60.30
2018-04-11T00:31:41.199Z,59.50
2018-04-11T00:34:08.204Z,59.60
2018-04-11T00:36:35.036Z,59.40
2018-04-11T00:39:02.065Z,59.90
2018-04-11T00:41:28.838Z,59.90
2018-04-11T00:43:55.842Z,60.10
2018-04-11T00:46:22.096Z,60.10
2018-04-11T00:48:48.393Z,60.50
2018-04-11T00:51:14.729Z,60.90
2018-04-11T00:53:42.043Z,60.90
2018-04-11T00:56:08.312Z,60.40
2018-04-11T00:58:34.582Z,60.50
2018-04-11T01:01:00.873Z,61.00
2018-04-11T01:03:27.604Z,59.80
2018-04-11T01:05:54.585Z,60.80
2018-04-11T01:08:21.501Z,61.00
2018-04-11T01:10:49.317Z,62.10
2018-04-11T01:13:16.319Z,62.10
2018-04-11T01:15:43.770Z,61.70
2018-04-11T01:18:10.749Z,61.70
2018-04-11T01:20:37.486Z,63.30
2018-04-11T01:23:04.505Z,62.50
2018-04-11T01:25:31.281Z,62.50
2018-04-11T01:27:58.259Z,64.90
2018-04-11T01:30:24.506Z,65.10
2018-04-11T01:32:51.528Z,63.00
2018-04-11T01:35:18.934Z,64.20
2018-04-11T01:37:45.944Z,64.20
2018-04-11T01:40:12.200Z,65.50
2018-04-11T01:42:39.014Z,65.50
2018-04-11T01:45:06.005Z,64.00
2018-04-11T01:47:32.264Z,64.10
2018-04-11T01:49:59.352Z,64.70
2018-04-11T01:52:26.343Z,64.60
2018-04-11T01:54:53.354Z,64.80
2018-04-11T01:57:21.640Z,67.40
2018-04-11T01:59:48.638Z,65.10
2018-04-11T02:02:15.540Z,65.20
2018-04-11T02:04:42.561Z,66.10
2018-04-11T02:07:09.362Z,66.20
2018-04-11T02:09:36.293Z,67.00
2018-04-11T02:12:04.161Z,67.40
2018-04-11T02:14:31.767Z,66.50
2018-04-11T02:16:58.671Z,66.50
2018-04-11T02:19:25.733Z,68.90
2018-04-11T02:21:52.724Z,68.00
2018-04-11T02:24:19.012Z,68.10
2018-04-11T02:26:46.011Z,68.00
2018-04-11T02:29:12.391Z,68.00
2018-04-11T02:31:38.998Z,67.90
2018-04-11T02:34:05.918Z,68.00
2018-04-11T02:36:32.736Z,68.40
2018-04-11T02:38:59.744Z,66.70
2018-04-11T02:41:26.646Z,66.70
2018-04-11T02:43:53.624Z,68.50
2018-04-11T02:46:19.867Z,68.60
2018-04-11T02:48:46.481Z,68.60
2018-04-11T02:51:12.743Z,69.40
2018-04-11T02:53:39.552Z,70.30
2018-04-11T02:56:06.536Z,68.60
2018-04-11T02:58:32.796Z,68.70
2018-04-11T03:00:59.586Z,69.40
2018-04-11T03:03:27.136Z,72.10
2018-04-11T03:05:53.397Z,72.10
2018-04-11T03:08:20.073Z,71.80
2018-04-11T03:10:46.757Z,71.80
2018-04-11T03:13:13.492Z,71.50
2018-04-11T03:15:40.440Z,71.10
2018-04-11T03:18:08.172Z,72.30
2018-04-11T03:20:34.425Z,72.40
2018-04-11T03:23:00.717Z,71.80
2018-04-11T03:25:27.661Z,71.70
2018-04-11T03:27:55.218Z,72.20
2018-04-11T03:30:22.238Z,73.40
2018-04-11T03:32:48.492Z,73.50
2018-04-11T03:35:15.934Z,72.30
2018-04-11T03:37:42.196Z,72.30
2018-04-11T03:40:09.544Z,74.20
2018-04-11T03:42:36.410Z,74.10
2018-04-11T03:45:03.469Z,73.90
2018-04-11T03:47:30.455Z,72.10
2018-04-11T03:49:56.718Z,72.10
2018-04-11T03:52:23.396Z,72.40
2018-04-11T03:54:51.273Z,74.60
2018-04-11T03:57:17.525Z,74.60
2018-04-11T03:59:43.783Z,73.20
2018-04-11T04:02:10.674Z,71.90
2018-04-11T04:04:37.685Z,73.80
2018-04-11T04:07:04.482Z,73.50
2018-04-11T04:09:31.478Z,71.70
2018-04-11T04:11:58.277Z,71.80
2018-04-11T04:14:39.871Z,73.80
2018-04-11T04:17:19.353Z,75.10
2018-04-11T04:19:58.020Z,75.20
2018-04-11T04:22:25.007Z,73.30
2018-04-11T04:24:52.644Z,73.40
2018-04-11T04:27:19.684Z,72.70
2018-04-11T04:29:47.463Z,74.20
2018-04-11T04:32:15.181Z,77.30
2018-04-11T04:34:41.915Z,77.20
2018-04-11T04:37:08.188Z,73.90
2018-04-11T04:39:34.441Z,72.90
2018-04-11T04:42:01.473Z,74.80
2018-04-11T04:44:27.725Z,74.90
2018-04-11T04:46:55.116Z,76.40
2018-04-11T04:49:21.409Z,76.50
2018-04-11T04:51:47.692Z,75.50
2018-04-11T04:54:14.619Z,74.80
2018-04-11T04:56:40.881Z,75.20
2018-04-11T04:59:07.129Z,77.20
2018-04-11T05:01:34.155Z,75.50
2018-04-11T05:04:01.187Z,77.50
2018-04-11T05:06:28.041Z,75.70
2018-04-11T05:08:55.100Z,75.80
2018-04-11T05:11:22.232Z,77.80
2018-04-11T05:13:49.915Z,75.40
2018-04-11T05:16:16.753Z,75.50
2018-04-11T05:18:43.777Z,74.10
2018-04-11T05:21:10.062Z,74.00
2018-04-11T05:23:36.747Z,73.40
2018-04-11T05:26:03.028Z,73.30
2018-04-11T05:28:29.830Z,73.00
2018-04-11T05:30:56.076Z,72.80
2018-04-11T05:33:23.667Z,71.80
2018-04-11T05:35:51.389Z,70.90
2018-04-11T05:38:17.637Z,70.90
2018-04-11T05:40:44.459Z,71.80
2018-04-11T05:43:10.733Z,72.70
2018-04-11T05:45:37.002Z,70.80
2018-04-11T05:48:03.376Z,70.30
2018-04-11T05:50:29.683Z,70.30
2018-04-11T05:52:56.037Z,69.80
2018-04-11T05:55:23.159Z,69.50
2018-04-11T05:57:49.866Z,69.20
2018-04-11T06:00:16.113Z,69.30
2018-04-11T06:02:42.866Z,69.00
2018-04-11T06:05:09.841Z,68.80
2018-04-11T06:07:36.572Z,68.90
2018-04-11T06:10:03.589Z,68.30
2018-04-11T06:12:29.837Z,68.00
2018-04-11T06:14:56.716Z,66.70
2018-04-11T06:17:23.043Z,66.80
2018-04-11T06:19:50.058Z,66.50
2018-04-11T06:22:16.724Z,66.40
2018-04-11T06:24:43.684Z,65.70
2018-04-11T06:27:11.161Z,64.80
2018-04-11T06:29:37.519Z,64.80
2018-04-11T06:32:04.449Z,63.40
2018-04-11T06:34:31.052Z,62.90
2018-04-11T06:36:57.314Z,63.60
2018-04-11T06:39:24.876Z,63.10
2018-04-11T06:41:51.169Z,63.00
2018-04-11T06:44:17.793Z,61.40
2018-04-11T06:46:44.065Z,61.50
2018-04-11T06:49:10.324Z,61.40
2018-04-11T06:51:37.316Z,60.30
2018-04-11T06:54:04.024Z,60.90
2018-04-11T06:56:31.008Z,60.50
2018-04-11T06:58:58.040Z,60.40
2018-04-11T07:01:24.764Z,60.90
2018-04-11T07:03:52.340Z,62.00
2018-04-11T07:06:19.352Z,61.40
2018-04-11T07:08:46.076Z,61.40
2018-04-11T07:11:12.352Z,61.70
2018-04-11T07:13:39.268Z,61.90
2018-04-11T07:16:05.948Z,63.70
2018-04-11T07:18:33.008Z,62.70
2018-04-11T07:20:59.995Z,62.10
2018-04-11T07:23:26.905Z,62.10
2018-04-11T07:25:53.778Z,62.60
2018-04-11T07:28:20.065Z,62.80
2018-04-11T07:30:46.668Z,62.90
2018-04-11T07:33:14.057Z,63.10
2018-04-11T07:35:40.337Z,62.80
2018-04-11T07:38:07.329Z,64.00
2018-04-11T07:40:34.131Z,64.00
2018-04-11T07:43:01.117Z,62.80
2018-04-11T07:45:27.406Z,62.80
2018-04-11T07:47:53.960Z,62.50
2018-04-11T07:50:20.962Z,63.40
2018-04-11T07:52:47.327Z,63.40
2018-04-11T07:55:15.025Z,64.10
2018-04-11T07:57:42.505Z,64.10
2018-04-11T08:00:08.768Z,64.10
2018-04-11T08:02:35.735Z,63.30
2018-04-11T08:05:02.044Z,64.40
2018-04-11T08:07:28.902Z,64.10
2018-04-11T08:09:55.526Z,63.30
2018-04-11T08:12:22.225Z,62.50
2018-04-11T08:14:49.350Z,61.90
2018-04-11T08:17:16.053Z,62.20
2018-04-11T08:19:42.346Z,63.00
2018-04-11T08:22:09.417Z,63.60
2018-04-11T08:24:36.998Z,62.30
2018-04-11T08:27:04.028Z,60.90
2018-04-11T08:29:30.420Z,60.70
2018-04-11T08:31:56.945Z,61.70
2018-04-11T08:34:23.771Z,61.60
2018-04-11T08:36:50.755Z,59.40
2018-04-11T08:39:17.032Z,59.40
2018-04-11T08:41:43.908Z,58.80
2018-04-11T08:44:10.926Z,59.60
2018-04-11T08:46:37.176Z,59.50
2018-04-11T08:49:03.992Z,59.50
2018-04-11T08:51:30.257Z,58.30
2018-04-11T08:53:57.728Z,56.80
2018-04-11T08:56:25.427Z,56.20
2018-04-11T08:58:52.492Z,56.10
2018-04-11T09:01:19.400Z,55.60
2018-04-11T09:03:46.394Z,56.70
2018-04-11T09:06:13.196Z,56.60
2018-04-11T09:08:40.676Z,54.80
2018-04-11T09:11:07.644Z,54.80
2018-04-11T09:13:34.440Z,51.80
2018-04-11T09:16:01.209Z,54.20
2018-04-11T09:18:28.190Z,52.80
2018-04-11T09:20:54.905Z,52.60
2018-04-11T09:23:21.885Z,51.00
2018-04-11T09:25:48.126Z,50.80
2018-04-11T09:28:14.408Z,53.00
2018-04-11T09:30:40.672Z,52.90
2018-04-11T09:33:08.127Z,50.90
2018-04-11T09:35:36.076Z,50.00
2018-04-11T09:38:02.321Z,49.90
2018-04-11T09:40:29.331Z,51.90
2018-04-11T09:42:55.564Z,52.40
2018-04-11T09:45:21.928Z,48.80
2018-04-11T09:47:48.696Z,49.90
2018-04-11T09:50:16.580Z,50.00
2018-04-11T09:52:44.452Z,49.50
2018-04-11T09:55:12.090Z,51.20
2018-04-11T09:57:38.986Z,51.20
2018-04-11T10:00:05.276Z,51.10
2018-04-11T10:02:36.648Z,50.10
2018-04-11T10:05:03.668Z,49.40
2018-04-11T10:07:30.552Z,49.30
2018-04-11T10:09:57.536Z,49.70
2018-04-11T10:12:24.552Z,49.70
2018-04-11T10:14:52.316Z,47.80
2018-04-11T10:17:19.979Z,49.10
2018-04-11T10:19:47.036Z,48.60
2018-04-11T10:22:14.067Z,48.10
2018-04-11T10:24:40.633Z,48.00
2018-04-11T10:27:07.612Z,47.70
2018-04-11T10:29:34.001Z,47.50
2018-04-11T10:32:00.646Z,47.80
2018-04-11T10:34:29.622Z,46.10
2018-04-11T10:36:56.299Z,45.90
2018-04-11T10:39:23.278Z,44.50
2018-04-11T10:41:49.587Z,44.30
2018-04-11T10:44:16.851Z,45.60
2018-04-11T10:46:43.841Z,44.00
2018-04-11T10:49:10.182Z,43.90
2018-04-11T10:51:36.981Z,42.30
2018-04-11T10:54:04.761Z,42.90
2018-04-11T10:56:31.756Z,41.20
2018-04-11T10:58:58.864Z,41.00
2018-04-11T11:01:26.452Z,40.90
2018-04-11T11:03:52.716Z,40.80
2018-04-11T11:06:19.711Z,39.70
2018-04-11T11:08:47.431Z,38.60
2018-04-11T11:11:14.344Z,38.40
2018-04-11T11:13:40.599Z,39.00
2018-04-11T11:16:07.635Z,39.50
2018-04-11T11:18:33.905Z,38.60
2018-04-11T11:21:00.712Z,37.40
2018-04-11T11:23:27.674Z,38.00
2018-04-11T11:25:54.971Z,38.50
2018-04-11T11:28:21.237Z,37.50
2018-04-11T11:30:48.255Z,37.10
2018-04-11T11:33:15.241Z,36.90
2018-04-11T11:35:42.825Z,35.20
2018-04-11T11:38:09.074Z,35.20
2018-04-11T11:40:35.340Z,35.80
2018-04-11T11:43:02.160Z,36.60
2018-04-11T11:45:28.921Z,34.60
2018-04-11T11:47:55.631Z,35.50
2018-04-11T11:50:21.905Z,36.20
2018-04-11T11:52:48.508Z,33.20
2018-04-11T11:55:15.113Z,35.90
2018-04-11T11:57:41.372Z,34.50
2018-04-11T12:00:08.945Z,35.00
2018-04-11T12:02:36.397Z,33.60
2018-04-11T12:05:04.024Z,32.90
2018-04-11T12:07:30.820Z,32.80
2018-04-11T12:09:57.582Z,34.10
2018-04-11T12:12:24.513Z,35.50
2018-04-11T12:14:52.210Z,35.60
2018-04-11T12:17:18.452Z,35.60
2018-04-11T12:19:44.708Z,34.10
2018-04-11T12:22:11.289Z,32.00
2018-04-11T12:24:38.268Z,33.20
2018-04-11T12:27:04.634Z,33.30
2018-04-11T12:29:30.914Z,31.70
2018-04-11T12:31:57.241Z,31.30
2018-04-11T12:34:25.019Z,33.00
2018-04-11T12:36:52.777Z,32.70
2018-04-11T12:39:19.771Z,32.30
2018-04-11T12:41:46.032Z,32.30
2018-04-11T12:44:12.671Z,31.50
2018-04-11T12:46:39.369Z,31.00
2018-04-11T12:49:05.641Z,31.80
2018-04-11T12:51:32.554Z,31.10
2018-04-11T12:53:59.194Z,30.60
2018-04-11T12:56:25.460Z,31.40
2018-04-11T12:58:51.721Z,31.20
2018-04-11T13:01:18.668Z,30.50
2018-04-11T13:03:45.452Z,29.80
2018-04-11T13:06:12.452Z,29.20
2018-04-11T13:08:39.134Z,29.20
2018-04-11T13:11:06.916Z,29.80
2018-04-11T13:13:33.905Z,29.60
2018-04-11T13:16:02.045Z,29.60
2018-04-11T13:18:29.136Z,29.00
2018-04-11T13:20:56.107Z,28.70
2018-04-11T13:23:22.385Z,28.80
2018-04-11T13:25:49.767Z,28.50
2018-04-11T13:28:16.037Z,28.40
2018-04-11T13:30:42.287Z,27.50
2018-04-11T13:33:09.061Z,28.10
2018-04-11T13:35:36.060Z,28.10
2018-04-11T13:38:02.965Z,28.10
2018-04-11T13:40:30.529Z,29.10
2018-04-11T13:42:58.024Z,28.90
2018-04-11T13:45:24.276Z,28.90
2018-04-11T13:47:51.072Z,29.40
2018-04-11T13:50:18.064Z,29.00
2018-04-11T13:52:45.074Z,28.90
2018-04-11T13:55:12.525Z,29.70
2018-04-11T13:57:39.549Z,29.60
2018-04-11T14:00:08.796Z,28.50
2018-04-11T14:02:36.378Z,28.80
2018-04-11T14:05:02.685Z,28.80
2018-04-11T14:07:30.446Z,29.00
2018-04-11T14:09:56.732Z,29.00
2018-04-11T14:12:22.985Z,29.50
2018-04-11T14:14:49.257Z,28.70
2018-04-11T14:17:16.839Z,28.80
2018-04-11T14:19:43.105Z,28.80
2018-04-11T14:22:09.404Z,28.80
2018-04-11T14:24:36.965Z,28.30
2018-04-11T14:27:04.836Z,28.10
2018-04-11T14:29:31.857Z,28.50
2018-04-11T14:31:58.218Z,28.40
2018-04-11T14:34:25.241Z,27.80
2018-04-11T14:36:51.908Z,27.40
2018-04-11T14:39:18.153Z,28.50
2018-04-11T14:41:45.571Z,27.80
2018-04-11T14:44:12.910Z,27.80
2018-04-11T14:46:39.923Z,27.10
2018-04-11T14:49:07.712Z,28.20
2018-04-11T14:51:34.528Z,28.10
2018-04-11T14:54:02.054Z,27.80
2018-04-11T14:56:28.324Z,27.80
2018-04-11T14:58:55.196Z,28.30
2018-04-11T15:01:22.864Z,29.30
2018-04-11T15:03:49.866Z,29.10
2018-04-11T15:06:16.766Z,29.00
2018-04-11T15:08:44.205Z,28.70
2018-04-11T15:11:10.868Z,28.70
2018-04-11T15:13:37.857Z,29.10
2018-04-11T15:16:04.502Z,29.10
2018-04-11T15:18:30.768Z,29.60
2018-04-11T15:20:57.767Z,29.20
2018-04-11T15:23:24.060Z,29.20
2018-04-11T15:25:51.056Z,29.70
2018-04-11T15:28:17.348Z,30.10
2018-04-11T15:30:44.320Z,29.60
2018-04-11T15:33:12.000Z,29.90
2018-04-11T15:35:38.745Z,29.90
2018-04-11T15:38:05.607Z,30.20
2018-04-11T15:40:31.876Z,30.80
2018-04-11T15:42:58.980Z,30.60
2018-04-11T15:45:25.228Z,30.50
2018-04-11T15:47:51.553Z,30.40
2018-04-11T15:50:17.820Z,30.70
2018-04-11T15:52:44.528Z,30.40
2018-04-11T15:55:11.569Z,30.20
2018-04-11T15:57:39.233Z,30.30
2018-04-11T16:00:06.244Z,30.00
2018-04-11T16:02:33.133Z,29.80
2018-04-11T16:05:00.671Z,30.30
2018-04-11T16:07:27.497Z,30.30
2018-04-11T16:09:55.381Z,30.30
2018-04-11T16:12:21.636Z,30.70
2018-04-11T16:14:48.484Z,31.30
2018-04-11T16:17:15.249Z,32.10
2018-04-11T16:19:43.134Z,31.50
2018-04-11T16:22:09.379Z,31.50
2018-04-11T16:24:35.636Z,31.70
2018-04-11T16:27:01.929Z,32.10
2018-04-11T16:29:28.916Z,32.40
2018-04-11T16:31:55.515Z,32.40
2018-04-11T16:34:23.199Z,32.50
2018-04-11T16:36:50.036Z,32.40
2018-04-11T16:39:17.041Z,32.20
2018-04-11T16:41:43.836Z,32.10
2018-04-11T16:44:10.856Z,33.20
2018-04-11T16:46:37.128Z,33.20
2018-04-11T16:49:04.380Z,33.30
2018-04-11T16:51:31.384Z,33.10
2018-04-11T16:53:58.861Z,33.10
2018-04-11T16:56:25.105Z,33.30
2018-04-11T16:58:51.363Z,33.50
2018-04-11T17:01:19.127Z,33.30
2018-04-11T17:03:46.756Z,33.40
2018-04-11T17:06:13.860Z,33.30
2018-04-11T17:08:40.112Z,33.60
2018-04-11T17:11:06.409Z,33.60
2018-04-11T17:13:33.649Z,34.20
2018-04-11T17:16:00.566Z,34.20
2018-04-11T17:18:27.494Z,34.40
2018-04-11T17:21:06.225Z,34.90
2018-04-11T17:23:45.337Z,35.50
2018-04-11T17:26:24.659Z,35.00
2018-04-11T17:29:06.145Z,36.40
2018-04-11T17:31:33.216Z,36.40
2018-04-11T17:33:59.945Z,37.00
2018-04-11T17:36:26.892Z,36.50
2018-04-11T17:38:54.375Z,37.20
2018-04-11T17:41:20.641Z,37.20
2018-04-11T17:43:46.922Z,38.60
2018-04-11T17:46:14.176Z,38.10
2018-04-11T17:48:41.177Z,38.20
2018-04-11T17:51:07.565Z,38.20
2018-04-11T17:53:35.444Z,39.50
2018-04-11T17:56:02.480Z,39.10
2018-04-11T17:58:30.876Z,39.10
2018-04-11T18:00:58.234Z,39.00
2018-04-11T18:03:25.662Z,39.30
2018-04-11T18:05:51.931Z,39.30
2018-04-11T18:08:19.419Z,39.70
2018-04-11T18:10:46.023Z,39.60
2018-04-11T18:13:12.979Z,39.40
2018-04-11T18:15:40.405Z,39.50
2018-04-11T18:18:07.066Z,39.50
2018-04-11T18:20:33.844Z,39.50
2018-04-11T18:23:00.848Z,39.50
2018-04-11T18:25:27.114Z,39.50
2018-04-11T18:27:54.145Z,39.80
2018-04-11T18:30:21.054Z,39.80
2018-04-11T18:32:48.006Z,40.00
2018-04-11T18:35:14.706Z,40.00
2018-04-11T18:37:41.718Z,41.00
2018-04-11T18:40:08.032Z,41.00
2018-04-11T18:42:34.746Z,40.20
2018-04-11T18:45:01.968Z,40.40
2018-04-11T18:47:28.229Z,40.40
2018-04-11T18:49:55.241Z,41.40
2018-04-11T18:52:21.499Z,41.90
2018-04-11T18:54:48.380Z,41.20
2018-04-11T18:57:15.947Z,42.60
2018-04-11T18:59:42.967Z,42.20
2018-04-11T19:02:09.746Z,42.20
2018-04-11T19:04:36.802Z,41.90
2018-04-11T19:07:04.170Z,41.90
2018-04-11T19:09:30.436Z,41.90
2018-04-11T19:11:57.228Z,42.20
2018-04-11T19:14:24.346Z,42.70
2018-04-11T19:16:51.221Z,42.70
2018-04-11T19:19:18.199Z,42.40
2018-04-11T19:21:44.491Z,43.30
2018-04-11T19:24:10.768Z,43.00
2018-04-11T19:26:38.129Z,42.50
2018-04-11T19:29:06.006Z,42.40
2018-04-11T19:31:32.366Z,42.40
2018-04-11T19:33:59.181Z,42.30
2018-04-11T19:36:27.177Z,42.70
2018-04-11T19:38:53.433Z,42.80
2018-04-11T19:41:19.756Z,42.20
2018-04-11T19:43:46.385Z,42.00
2018-04-11T19:46:12.689Z,41.60
2018-04-11T19:48:41.021Z,42.40
2018-04-11T19:51:07.626Z,42.30
2018-04-11T19:53:35.183Z,42.20
2018-04-11T19:56:02.982Z,42.60
2018-04-11T19:58:29.276Z,42.50
2018-04-11T20:00:56.295Z,41.90
2018-04-11T20:03:23.031Z,42.30
2018-04-11T20:05:49.300Z,42.30
2018-04-11T20:08:16.147Z,42.30
2018-04-11T20:10:43.444Z,42.10
2018-04-11T20:13:09.724Z,42.10
2018-04-11T20:15:36.471Z,41.80
2018-04-11T20:18:03.260Z,42.00
2018-04-11T20:20:30.580Z,41.70
2018-04-11T20:22:56.951Z,41.70
2018-04-11T20:25:25.182Z,42.00
2018-04-11T20:27:51.438Z,41.90
2018-04-11T20:30:18.399Z,41.90
2018-04-11T20:32:46.082Z,41.80
2018-04-11T20:35:13.681Z,41.90
2018-04-11T20:37:39.933Z,41.90
2018-04-11T20:40:06.186Z,42.20
2018-04-11T20:42:32.660Z,42.20
2018-04-11T20:44:59.660Z,42.50
2018-04-11T20:47:26.025Z,42.50
2018-04-11T20:49:53.418Z,42.50
2018-04-11T20:52:20.414Z,42.50
2018-04-11T20:54:47.382Z,42.50
2018-04-11T20:57:13.645Z,42.60
2018-04-11T20:59:41.015Z,42.60
2018-04-11T21:02:07.760Z,42.60
2018-04-11T21:04:34.752Z,42.50
2018-04-11T21:07:01.649Z,42.50
2018-04-11T21:09:28.645Z,42.70
2018-04-11T21:11:55.450Z,42.60
2018-04-11T21:14:22.449Z,42.30
2018-04-11T21:16:50.177Z,42.30
2018-04-11T21:19:17.196Z,42.70
2018-04-11T21:21:43.456Z,42.60
2018-04-11T21:24:11.553Z,42.90
2018-04-11T21:26:37.808Z,42.90
2018-04-11T21:29:04.078Z,42.90
2018-04-11T21:31:30.851Z,42.60
2018-04-11T21:33:58.525Z,42.90
2018-04-11T21:36:25.591Z,43.30
2018-04-11T21:38:51.900Z,43.30
2018-04-11T21:41:18.901Z,43.40
2018-04-11T21:43:45.167Z,43.40
2018-04-11T21:46:11.528Z,43.50
2018-04-11T21:48:39.192Z,43.70
2018-04-11T21:51:06.180Z,44.20
2018-04-11T21:53:32.983Z,44.20
2018-04-11T21:56:00.436Z,44.80
2018-04-11T21:58:26.718Z,44.40
2018-04-11T22:00:53.019Z,44.80
2018-04-11T22:03:20.747Z,45.70
2018-04-11T22:05:47.012Z,45.70
2018-04-11T22:08:13.892Z,46.70
2018-04-11T22:10:40.724Z,46.10
2018-04-11T22:13:07.720Z,46.20
2018-04-11T22:15:34.425Z,46.30
2018-04-11T22:18:01.415Z,45.90
2018-04-11T22:20:27.753Z,45.90
2018-04-11T22:22:55.690Z,47.80
2018-04-11T22:25:22.681Z,47.00
2018-04-11T22:27:49.711Z,46.90
2018-04-11T22:30:16.444Z,46.50
2018-04-11T22:32:43.444Z,47.20
2018-04-11T22:35:10.036Z,47.20
2018-04-11T22:37:37.032Z,47.20
2018-04-11T22:40:03.361Z,47.30
2018-04-11T22:42:29.653Z,47.40
2018-04-11T22:44:56.724Z,47.40
2018-04-11T22:47:23.292Z,47.50
2018-04-11T22:49:49.538Z,47.20
2018-04-11T22:52:15.784Z,47.30
2018-04-11T22:54:42.761Z,47.20
2018-04-11T22:57:10.569Z,47.00
2018-04-11T22:59:37.497Z,47.00
2018-04-11T23:02:04.216Z,47.00
2018-04-11T23:04:31.420Z,47.30
2018-04-11T23:06:58.145Z,47.20
2018-04-11T23:09:24.423Z,48.20
2018-04-11T23:11:51.305Z,48.30
2018-04-11T23:14:18.364Z,48.40
2018-04-11T23:16:45.961Z,48.40
2018-04-11T23:19:12.723Z,48.30
2018-04-11T23:21:38.980Z,47.80
2018-04-11T23:24:05.280Z,48.90
2018-04-11T23:26:31.882Z,48.10
2018-04-11T23:28:58.129Z,48.30
2018-04-11T23:31:25.449Z,48.90
2018-04-11T23:33:51.705Z,48.90
2018-04-11T23:36:17.943Z,48.60
2018-04-11T23:38:44.248Z,49.10
2018-04-11T23:41:10.505Z,49.20
2018-04-11T23:43:37.505Z,51.10
2018-04-11T23:46:03.786Z,50.00
2018-04-11T23:48:30.136Z,51.60
2018-04-11T23:50:56.683Z,51.70
2018-04-11T23:53:24.515Z,51.20
2018-04-11T23:55:50.761Z,51.00
2018-04-11T23:58:17.755Z,51.50
